Time;durP1;ratioP1;P1;durP2;ratioP2;P2;SDS_P1;SDS_P2;PMS_P1;PMS_P2;Temp;Humidity;BMP_temperature;BMP_pressure;BME280_temperature;BME280_humidity;BME280_pressure;Samples;Min_cycle;Max_cycle;Signal;HPM_P1;HPM_P2
2023/03/18 00:01:06;;;;;;;15.93;8.27;;;;;;;12.45;100.00;100564.16;4803043;29;20094;-75
2023/03/18 00:03:39;;;;;;;20.42;11.35;;;;;;;12.46;100.00;100563.09;4806382;29;20037;-77
2023/03/18 00:06:12;;;;;;;36.58;22.25;;;;;;;12.50;100.00;100573.22;4806844;29;20535;-75
2023/03/18 00:08:39;;;;;;;25.17;15.32;;;;;;;12.45;100.00;100573.09;4804794;29;20096;-73
2023/03/18 00:11:06;;;;;;;28.92;15.00;;;;;;;12.44;100.00;100570.63;4819704;29;20407;-74
2023/03/18 00:13:33;;;;;;;20.75;12.57;;;;;;;12.39;100.00;100580.34;4806970;29;20039;-73
2023/03/18 00:16:03;;;;;;;16.92;10.52;;;;;;;12.33;100.00;100580.50;4806587;29;20034;-77
2023/03/18 00:18:30;;;;;;;18.25;9.45;;;;;;;12.34;100.00;100580.25;4804832;29;20048;-75
2023/03/18 00:20:57;;;;;;;20.08;9.45;;;;;;;12.33;100.00;100575.88;4805855;29;20031;-73
2023/03/18 00:23:26;;;;;;;14.70;8.13;;;;;;;12.33;100.00;100581.31;4805203;29;20041;-74
2023/03/18 00:25:55;;;;;;;14.90;8.32;;;;;;;12.29;100.00;100580.16;4807677;29;20088;-73
2023/03/18 00:28:22;;;;;;;16.40;7.53;;;;;;;12.29;100.00;100592.88;4805487;29;20110;-75
2023/03/18 00:30:48;;;;;;;16.10;8.50;;;;;;;12.27;100.00;100587.72;4818127;29;20042;-75
2023/03/18 00:33:22;;;;;;;17.55;8.40;;;;;;;12.30;100.00;100602.69;4808836;29;20126;-72
2023/03/18 00:35:47;;;;;;;12.18;7.63;;;;;;;12.20;100.00;100598.72;4806149;29;20129;-74
2023/03/18 00:38:20;;;;;;;12.27;7.57;;;;;;;12.22;100.00;100595.75;4805092;29;20037;-76
2023/03/18 00:41:00;;;;;;;15.23;8.18;;;;;;;12.26;100.00;100601.50;4802776;29;20049;-76
2023/03/18 00:43:28;;;;;;;18.17;8.43;;;;;;;12.22;100.00;100598.47;4806276;29;20034;-75
2023/03/18 00:45:55;;;;;;;16.10;8.05;;;;;;;12.18;100.00;100595.44;4806771;29;20349;-74
2023/03/18 00:48:24;;;;;;;16.08;8.23;;;;;;;12.22;100.00;100607.44;4802285;29;20037;-75
2023/03/18 00:50:50;;;;;;;12.20;8.32;;;;;;;12.22;100.00;100602.00;4804080;29;20095;-75
2023/03/18 00:53:20;;;;;;;16.20;7.85;;;;;;;12.22;100.00;100612.03;4804092;29;20034;-76
2023/03/18 00:55:46;;;;;;;13.13;7.80;;;;;;;12.15;100.00;100614.91;4804842;29;20490;-74
2023/03/18 00:58:12;;;;;;;15.00;7.85;;;;;;;12.13;100.00;100608.88;4802209;29;20356;-71
2023/03/18 01:00:38;;;;;;;16.55;8.40;;;;;;;12.12;100.00;100612.66;4801093;29;20030;-73
2023/03/18 01:03:05;;;;;;;15.75;7.95;;;;;;;12.11;100.00;100605.59;4804747;29;20486;-75
2023/03/18 01:05:32;;;;;;;17.15;7.72;;;;;;;12.13;100.00;100608.06;4804782;29;20034;-74
2023/03/18 01:08:04;;;;;;;15.90;8.07;;;;;;;12.09;100.00;100598.75;4803610;29;20038;-76
2023/03/18 01:10:43;;;;;;;16.33;7.97;;;;;;;12.12;100.00;100601.78;4801736;29;20035;-70
2023/03/18 01:13:28;;;;;;;14.75;7.65;;;;;;;12.12;100.00;100599.09;4802522;29;20091;-72
2023/03/18 01:16:14;;;;;;;15.60;7.53;;;;;;;12.10;100.00;100601.22;4804610;29;20058;-75
2023/03/18 01:18:59;;;;;;;19.83;8.40;;;;;;;12.09;100.00;100596.84;4810053;29;20052;-72
2023/03/18 01:21:39;;;;;;;16.75;7.90;;;;;;;12.07;100.00;100593.56;4817931;29;20356;-71
2023/03/18 01:24:21;;;;;;;19.45;8.63;;;;;;;12.09;100.00;100596.84;4803205;29;20089;-72
2023/03/18 01:27:06;;;;;;;18.65;9.18;;;;;;;12.02;100.00;100599.72;4804299;29;20491;-75
2023/03/18 01:29:50;;;;;;;20.02;8.38;;;;;;;12.04;100.00;100596.78;4807014;29;20035;-73
2023/03/18 01:32:36;;;;;;;19.23;9.02;;;;;;;11.97;100.00;100605.06;4803420;29;20391;-73
2023/03/18 01:35:16;;;;;;;21.52;8.95;;;;;;;11.95;100.00;100611.78;4805046;29;20038;-74
2023/03/18 01:37:54;;;;;;;18.38;9.88;;;;;;;11.92;100.00;100607.63;4803654;29;20090;-72
2023/03/18 01:40:27;;;;;;;17.25;10.63;;;;;;;11.82;100.00;100597.41;4803703;29;20535;-74
2023/03/18 01:42:58;;;;;;;;;;;;;;;11.96;100.00;100602.59;4803843;29;20486;-73
2023/03/18 01:45:30;;;;;;;19.65;10.15;;;;;;;11.71;100.00;100595.53;4802900;29;19924;-72
2023/03/18 01:47:57;;;;;;;20.15;10.82;;;;;;;11.69;100.00;100597.66;4802769;29;20491;-74
2023/03/18 01:50:36;;;;;;;19.73;11.23;;;;;;;11.67;100.00;100597.06;4808427;29;20046;-74
2023/03/18 01:53:07;;;;;;;17.73;11.32;;;;;;;11.66;100.00;100598.13;4802804;29;20444;-74
2023/03/18 01:55:35;;;;;;;20.15;11.73;;;;;;;11.65;100.00;100596.47;4800904;29;20061;-74
2023/03/18 01:58:06;;;;;;;18.52;11.15;;;;;;;11.52;100.00;100595.66;4803137;29;20421;-74
2023/03/18 02:00:37;;;;;;;21.75;11.57;;;;;;;11.51;100.00;100596.72;4801215;29;20062;-70
2023/03/18 02:03:05;;;;;;;20.00;11.18;;;;;;;11.48;100.00;100602.63;4802637;29;20121;-70
2023/03/18 02:05:30;;;;;;;22.70;12.20;;;;;;;11.50;100.00;100592.38;4802690;29;20538;-74
2023/03/18 02:07:56;;;;;;;23.42;11.88;;;;;;;11.49;100.00;100593.44;4803829;29;20037;-74
2023/03/18 02:10:27;;;;;;;21.75;12.07;;;;;;;11.49;100.00;100595.34;4817954;29;20049;-70
2023/03/18 02:13:03;;;;;;;22.85;12.55;;;;;;;11.46;100.00;100593.09;4807113;29;20071;-72
2023/03/18 02:15:36;;;;;;;20.23;12.68;;;;;;;11.40;100.00;100596.72;4803363;29;20125;-72
2023/03/18 02:18:10;;;;;;;20.65;12.00;;;;;;;11.39;100.00;100593.22;4803774;29;20371;-74
2023/03/18 02:20:42;;;;;;;19.10;11.50;;;;;;;11.37;100.00;100603.47;4819347;29;20125;-72
2023/03/18 02:23:20;;;;;;;22.27;13.13;;;;;;;11.40;100.00;100607.56;4805335;29;20064;-71
2023/03/18 02:26:07;;;;;;;22.45;12.52;;;;;;;11.34;100.00;100601.22;4802628;29;20435;-73
2023/03/18 02:28:36;;;;;;;25.73;13.15;;;;;;;11.30;100.00;100595.44;4803210;29;20031;-75
2023/03/18 02:31:04;;;;;;;20.77;13.20;;;;;;;11.28;100.00;100613.81;4787777;29;20028;-73
2023/03/18 02:33:34;;;;;;;21.02;13.43;;;;;;;11.25;100.00;100613.50;4817253;29;20038;-73
2023/03/18 02:36:09;;;;;;;25.20;14.40;;;;;;;11.25;100.00;100624.31;4786195;29;20050;-73
2023/03/18 02:38:39;;;;;;;22.50;13.43;;;;;;;11.25;100.00;100617.00;4785562;29;20042;-73
2023/03/18 02:41:05;;;;;;;20.83;13.27;;;;;;;11.20;100.00;100618.75;4815131;29;20056;-75
2023/03/18 02:43:32;;;;;;;21.25;13.85;;;;;;;11.18;100.00;100621.72;4805310;29;20145;-75
2023/03/18 02:46:03;;;;;;;21.08;13.73;;;;;;;11.18;100.00;100629.84;4802343;29;20105;-77
2023/03/18 02:48:39;;;;;;;22.27;13.73;;;;;;;11.19;100.00;100626.06;4804457;29;20026;-72
2023/03/18 02:51:06;;;;;;;20.92;13.60;;;;;;;11.18;100.00;100627.94;4786703;29;20066;-77
2023/03/18 02:53:32;;;;;;;22.98;14.43;;;;;;;11.19;100.00;100620.66;4801090;29;20047;-73
2023/03/18 02:56:01;;;;;;;23.45;14.15;;;;;;;11.18;100.00;100630.66;4802904;29;20041;-75
2023/03/18 02:58:27;;;;;;;21.98;14.68;;;;;;;11.16;100.00;100631.97;4803473;29;20118;-76
2023/03/18 03:00:53;;;;;;;24.77;14.32;;;;;;;11.13;100.00;100627.84;4801472;29;20113;-73
2023/03/18 03:03:20;;;;;;;23.75;14.10;;;;;;;11.15;100.00;100635.72;4803135;29;20035;-77
2023/03/18 03:05:45;;;;;;;22.52;14.35;;;;;;;11.17;100.00;100639.00;4801221;29;20023;-74
2023/03/18 03:08:11;;;;;;;24.08;14.60;;;;;;;11.13;100.00;100643.25;4804428;29;20037;-73
2023/03/18 03:10:36;;;;;;;21.33;14.32;;;;;;;11.10;100.00;100641.84;4789903;29;20492;-76
2023/03/18 03:13:03;;;;;;;23.45;14.98;;;;;;;11.08;100.00;100662.06;4812549;29;20121;-76
2023/03/18 03:15:28;;;;;;;25.45;15.07;;;;;;;11.05;100.00;100657.97;4804861;29;20042;-74
2023/03/18 03:17:53;;;;;;;21.88;14.20;;;;;;;11.07;100.00;100658.56;4804500;29;20039;-75
2023/03/18 03:20:20;;;;;;;22.35;15.55;;;;;;;11.06;100.00;100659.59;4816789;29;20117;-73
2023/03/18 03:22:46;;;;;;;19.90;14.27;;;;;;;11.06;100.00;100658.78;4812906;29;20039;-75
2023/03/18 03:25:12;;;;;;;25.48;15.45;;;;;;;11.06;100.00;100659.59;4806815;29;20069;-77
2023/03/18 03:27:37;;;;;;;23.27;15.25;;;;;;;11.04;100.00;100648.19;4806763;29;20043;-75
2023/03/18 03:30:09;;;;;;;23.88;15.40;;;;;;;11.04;100.00;100659.03;4808006;29;20046;-73
2023/03/18 03:32:38;;;;;;;21.45;14.90;;;;;;;11.03;100.00;100653.84;4805567;29;20513;-74
2023/03/18 03:35:06;;;;;;;21.98;15.00;;;;;;;11.04;100.00;100660.91;4793241;29;20034;-72
2023/03/18 03:37:32;;;;;;;23.10;15.52;;;;;;;11.02;100.00;100661.16;4807393;29;20090;-73
2023/03/18 03:39:58;;;;;;;21.73;15.68;;;;;;;11.00;100.00;100663.25;4809135;29;20035;-75
2023/03/18 03:42:24;;;;;;;25.58;15.27;;;;;;;11.03;100.00;100660.06;4805825;29;20100;-77
2023/03/18 03:44:49;;;;;;;20.48;15.30;;;;;;;11.01;100.00;100651.38;4808173;29;20034;-76
2023/03/18 03:47:15;;;;;;;24.65;15.90;;;;;;;11.03;100.00;100657.38;4804324;29;20045;-76
2023/03/18 03:49:41;;;;;;;21.40;15.25;;;;;;;11.02;100.00;100666.56;4812625;29;20134;-74
2023/03/18 03:52:07;;;;;;;24.40;16.02;;;;;;;11.01;100.00;100662.19;4812494;29;20035;-76
2023/03/18 03:54:32;;;;;;;23.92;15.93;;;;;;;11.01;100.00;100662.19;4804563;29;20042;-77
2023/03/18 03:56:58;;;;;;;24.27;16.05;;;;;;;10.96;100.00;100662.91;4804884;29;20488;-76
2023/03/18 03:59:23;;;;;;;24.60;16.42;;;;;;;10.98;100.00;100668.91;4804714;29;20482;-74
2023/03/18 04:01:49;;;;;;;25.77;16.17;;;;;;;11.01;100.00;100673.03;4802306;29;20089;-75
2023/03/18 04:04:15;;;;;;;23.77;15.82;;;;;;;11.04;100.00;100672.56;4804883;29;20123;-76
2023/03/18 04:06:41;;;;;;;23.20;15.73;;;;;;;11.04;100.00;100677.16;4805765;29;20121;-74
2023/03/18 04:09:06;;;;;;;25.73;16.80;;;;;;;11.00;100.00;100676.78;4806069;29;20033;-75
2023/03/18 04:11:37;;;;;;;23.55;16.38;;;;;;;10.97;100.00;100677.25;4804375;29;20027;-71
2023/03/18 04:14:03;;;;;;;24.67;16.30;;;;;;;11.02;100.00;100676.53;4799916;29;20032;-74
2023/03/18 04:16:28;;;;;;;22.58;15.35;;;;;;;10.99;100.00;100681.38;4796426;29;20031;-73
2023/03/18 04:18:53;;;;;;;21.42;15.75;;;;;;;11.01;100.00;100673.03;4806062;29;20035;-73
2023/03/18 04:21:19;;;;;;;21.50;15.70;;;;;;;10.98;100.00;100668.06;4805074;29;20093;-75
2023/03/18 04:23:44;;;;;;;25.70;15.77;;;;;;;10.98;100.00;100678.91;4805235;29;20521;-75
2023/03/18 04:26:11;;;;;;;22.42;16.88;;;;;;;10.99;100.00;100675.13;4805238;29;20051;-73
2023/03/18 04:28:37;;;;;;;21.73;15.93;;;;;;;10.99;100.00;100683.25;4805388;29;20061;-73
2023/03/18 04:31:02;;;;;;;26.70;16.92;;;;;;;10.97;100.00;100678.06;4803935;29;20291;-75
2023/03/18 04:33:27;;;;;;;27.00;16.05;;;;;;;11.00;100.00;100682.19;4804292;29;20035;-74
2023/03/18 04:35:53;;;;;;;21.42;16.77;;;;;;;10.97;100.00;100672.66;4813074;29;20038;-74
2023/03/18 04:38:19;;;;;;;24.48;17.25;;;;;;;10.98;100.00;100685.13;4805873;29;20058;-73
2023/03/18 04:40:44;;;;;;;21.33;15.75;;;;;;;10.97;100.00;100683.47;4805138;29;20375;-73
2023/03/18 04:43:10;;;;;;;25.33;16.90;;;;;;;10.96;100.00;100689.97;4803892;29;20035;-75
2023/03/18 04:45:35;;;;;;;25.92;16.70;;;;;;;10.96;100.00;100691.84;4816843;29;20034;-75
2023/03/18 04:48:01;;;;;;;23.38;16.23;;;;;;;10.95;100.00;100701.03;4806913;29;20035;-72
2023/03/18 04:50:27;;;;;;;23.80;16.73;;;;;;;10.96;100.00;100695.38;4770467;29;1093098;-75
2023/03/18 04:52:53;;;;;;;26.38;17.17;;;;;;;10.94;100.00;100693.97;4805086;29;20042;-73
2023/03/18 04:55:20;;;;;;;24.33;17.08;;;;;;;10.94;100.00;100699.38;4803788;29;20422;-74
2023/03/18 04:57:47;;;;;;;23.73;17.20;;;;;;;10.90;100.00;100706.28;4803605;29;20376;-74
2023/03/18 05:00:16;;;;;;;25.60;17.35;;;;;;;10.88;100.00;100703.00;4801904;29;20039;-74
2023/03/18 05:02:45;;;;;;;24.33;17.35;;;;;;;10.88;100.00;100706.53;4803975;29;20740;-77
2023/03/18 05:05:10;;;;;;;26.40;18.20;;;;;;;10.89;100.00;100710.91;4806969;29;20107;-76
2023/03/18 05:07:36;;;;;;;24.75;17.45;;;;;;;10.87;100.00;100710.31;4814646;29;20460;-75
2023/03/18 05:10:05;;;;;;;27.02;17.60;;;;;;;10.86;100.00;100714.06;4823852;29;20026;-77
2023/03/18 05:12:35;;;;;;;25.67;17.70;;;;;;;10.84;100.00;100721.59;4820283;29;20035;-72
2023/03/18 05:15:05;;;;;;;23.40;16.75;;;;;;;10.86;100.00;100724.06;4805347;29;20031;-72
2023/03/18 05:17:30;;;;;;;22.23;17.27;;;;;;;10.82;100.00;100713.72;4811297;29;20038;-72
2023/03/18 05:19:59;;;;;;;22.20;17.30;;;;;;;10.80;100.00;100707.69;4804906;29;20039;-72
2023/03/18 05:22:25;;;;;;;24.05;16.80;;;;;;;10.79;100.00;100708.75;4805763;29;20106;-76
2023/03/18 05:24:50;;;;;;;21.88;16.55;;;;;;;10.76;100.00;100702.97;4806867;29;20482;-75
2023/03/18 05:27:20;;;;;;;23.80;17.02;;;;;;;10.78;100.00;100698.16;4815510;29;20049;-73
2023/03/18 05:29:46;;;;;;;24.08;16.38;;;;;;;10.78;100.00;100696.28;4803075;29;20069;-74
2023/03/18 05:32:13;;;;;;;22.10;16.52;;;;;;;10.74;100.00;100700.47;4804548;29;20066;-74
2023/03/18 05:34:40;;;;;;;22.35;16.65;;;;;;;10.78;100.00;100700.88;4806287;29;20038;-74
2023/03/18 05:37:08;;;;;;;22.60;16.58;;;;;;;10.76;100.00;100698.34;4812724;29;20038;-75
2023/03/18 05:39:35;;;;;;;22.55;16.48;;;;;;;10.77;100.00;100688.38;4802794;29;20039;-75
2023/03/18 05:42:05;;;;;;;21.05;16.05;;;;;;;10.76;100.00;100706.47;4804472;29;20499;-75
2023/03/18 05:44:31;;;;;;;21.25;17.05;;;;;;;10.74;100.00;100700.47;4803271;29;20035;-77
2023/03/18 05:46:57;;;;;;;23.38;16.35;;;;;;;10.74;100.00;100708.59;4806031;29;20372;-76
2023/03/18 05:49:23;;;;;;;21.27;16.52;;;;;;;10.74;100.00;100719.44;4804089;29;20050;-74
2023/03/18 05:51:51;;;;;;;21.83;16.45;;;;;;;10.71;100.00;100732.59;4805106;29;20476;-75
2023/03/18 05:54:17;;;;;;;22.85;16.35;;;;;;;10.70;100.00;100725.53;4805279;29;20030;-73
2023/03/18 05:56:44;;;;;;;20.48;16.10;;;;;;;10.67;100.00;100731.41;4814588;29;20463;-75
2023/03/18 05:59:10;;;;;;;20.50;15.63;;;;;;;10.66;100.00;100738.72;4824342;29;20042;-76
2023/03/18 06:01:36;;;;;;;21.10;16.42;;;;;;;10.66;100.00;100748.69;4807856;29;20117;-74
2023/03/18 06:04:03;;;;;;;19.67;15.43;;;;;;;10.64;100.00;100743.50;4805965;29;20057;-73
2023/03/18 06:06:29;;;;;;;20.58;15.45;;;;;;;10.65;100.00;100750.56;4809802;29;20034;-74
2023/03/18 06:08:55;;;;;;;22.70;15.85;;;;;;;10.64;100.00;100746.22;4806171;29;20054;-71
2023/03/18 06:11:20;;;;;;;19.58;15.43;;;;;;;10.61;100.00;100744.81;4803837;29;20066;-72
2023/03/18 06:13:46;;;;;;;21.48;15.18;;;;;;;10.60;100.00;100743.13;4804533;29;20096;-74
2023/03/18 06:16:13;;;;;;;21.48;15.07;;;;;;;10.57;100.00;100737.38;4802876;29;20026;-74
2023/03/18 06:18:39;;;;;;;20.65;15.35;;;;;;;10.48;100.00;100736.84;4811855;29;20448;-73
2023/03/18 06:21:08;;;;;;;22.08;15.40;;;;;;;10.46;100.00;100745.19;4822706;29;20043;-72
2023/03/18 06:23:34;;;;;;;24.67;15.15;;;;;;;10.48;100.00;100744.13;4811369;29;20443;-73
2023/03/18 06:26:00;;;;;;;23.90;15.98;;;;;;;10.46;100.00;100742.50;4809814;29;20046;-74
2023/03/18 06:28:26;;;;;;;19.55;15.20;;;;;;;10.47;100.00;100737.88;4813807;29;20034;-74
2023/03/18 06:30:56;;;;;;;18.70;14.80;;;;;;;10.46;100.00;100747.91;4804820;29;20031;-73
2023/03/18 06:33:21;;;;;;;19.48;15.13;;;;;;;10.43;100.00;100748.34;4804530;29;20030;-72
2023/03/18 06:35:48;;;;;;;22.83;15.07;;;;;;;10.41;100.00;100747.72;4804909;29;20042;-74
2023/03/18 06:38:16;;;;;;;19.85;15.40;;;;;;;10.41;100.00;100745.03;4814641;29;20084;-72
2023/03/18 06:40:46;;;;;;;19.17;15.18;;;;;;;10.45;100.00;100757.06;4804345;29;20042;-74
2023/03/18 06:43:15;;;;;;;20.48;15.00;;;;;;;10.43;100.00;100752.91;4804231;29;20046;-75
2023/03/18 06:45:40;;;;;;;21.95;16.00;;;;;;;10.43;100.00;100767.28;4805498;29;20058;-77
2023/03/18 06:48:10;;;;;;;19.08;14.52;;;;;;;10.44;100.00;100760.00;4813826;29;20114;-72
2023/03/18 06:50:38;;;;;;;18.85;15.13;;;;;;;10.45;100.00;100759.75;4804619;29;20046;-73
2023/03/18 06:53:04;;;;;;;21.23;15.35;;;;;;;10.48;100.00;100765.75;4804735;29;20058;-72
2023/03/18 06:55:36;;;;;;;23.02;15.27;;;;;;;10.51;100.00;100768.84;4805311;29;20038;-74
2023/03/18 06:58:05;;;;;;;18.60;15.40;;;;;;;10.50;100.00;100769.09;4808862;29;20439;-72
2023/03/18 07:00:32;;;;;;;21.08;15.98;;;;;;;10.50;100.00;100769.09;4805189;29;20388;-72
2023/03/18 07:02:58;;;;;;;20.35;15.02;;;;;;;10.53;100.00;100774.03;4807012;29;20121;-71
2023/03/18 07:05:25;;;;;;;19.05;14.52;;;;;;;10.51;100.00;100774.28;4807217;29;20449;-72
2023/03/18 07:07:55;;;;;;;21.00;16.27;;;;;;;10.49;100.00;100776.34;4805042;29;20421;-73
2023/03/18 07:10:28;;;;;;;21.50;16.70;;;;;;;10.47;100.00;100781.19;4808160;29;20062;-75
2023/03/18 07:13:00;;;;;;;22.75;16.08;;;;;;;10.48;100.00;100777.44;4806521;29;20078;-76
2023/03/18 07:15:26;;;;;;;20.58;16.10;;;;;;;10.51;100.00;100785.09;4806988;29;20031;-71
2023/03/18 07:17:52;;;;;;;18.48;15.88;;;;;;;10.54;100.00;100781.94;4813597;29;20348;-74
2023/03/18 07:20:20;;;;;;;21.75;15.50;;;;;;;10.55;100.00;100793.56;4807620;29;20061;-75
2023/03/18 07:22:46;;;;;;;19.27;15.68;;;;;;;10.54;100.00;100794.66;4807899;29;20026;-75
2023/03/18 07:25:12;;;;;;;20.38;15.43;;;;;;;10.58;100.00;100798.53;4807742;29;20046;-72
2023/03/18 07:27:38;;;;;;;21.25;15.88;;;;;;;10.60;100.00;100799.16;4805404;29;20379;-75
2023/03/18 07:30:05;;;;;;;22.88;16.95;;;;;;;10.59;100.00;100794.78;4790604;29;20111;-75
2023/03/18 07:32:31;;;;;;;20.00;15.57;;;;;;;10.64;100.00;100800.31;4805998;29;20043;-73
2023/03/18 07:35:01;;;;;;;20.17;15.38;;;;;;;10.58;100.00;100791.25;4806250;29;20030;-74
2023/03/18 07:37:27;;;;;;;19.77;16.37;;;;;;;10.61;100.00;100796.22;4805825;29;20483;-76
2023/03/18 07:39:52;;;;;;;19.20;15.70;;;;;;;10.69;100.00;100814.03;4807007;29;20035;-75
2023/03/18 07:42:18;;;;;;;20.35;15.48;;;;;;;10.66;100.00;100811.78;4807434;29;20452;-73
2023/03/18 07:44:43;;;;;;;20.70;16.10;;;;;;;10.68;100.00;100809.66;4819265;29;20435;-73
2023/03/18 07:47:09;;;;;;;20.02;17.00;;;;;;;10.71;100.00;100825.44;4826687;29;20041;-73
2023/03/18 07:49:34;;;;;;;20.50;15.38;;;;;;;10.74;100.00;100816.03;4801724;29;20054;-73
2023/03/18 07:52:06;;;;;;;19.88;15.85;;;;;;;10.76;100.00;100828.28;4806427;29;20041;-73
2023/03/18 07:54:31;;;;;;;;;;;;;;;10.89;100.00;100831.91;4806361;29;20039;-75
2023/03/18 07:56:56;;;;;;;20.42;15.65;;;;;;;10.85;100.00;100828.00;4807413;29;19936;-75
2023/03/18 07:59:26;;;;;;;20.23;15.18;;;;;;;10.88;100.00;100832.94;4814092;29;20041;-74
2023/03/18 08:01:51;;;;;;;17.92;14.65;;;;;;;10.90;100.00;100817.28;4803841;29;20511;-76
2023/03/18 08:04:18;;;;;;;19.42;13.63;;;;;;;10.97;100.00;100820.75;4805390;29;20110;-76
2023/03/18 08:06:43;;;;;;;19.55;13.27;;;;;;;11.05;100.00;100823.16;4802964;29;20360;-74
2023/03/18 08:09:09;;;;;;;16.17;12.63;;;;;;;11.11;100.00;100821.38;4811546;29;20087;-76
2023/03/18 08:11:35;;;;;;;17.98;12.50;;;;;;;11.16;100.00;100814.25;4806510;29;20046;-75
2023/03/18 08:14:06;;;;;;;15.55;12.10;;;;;;;11.21;100.00;100810.84;4806712;29;20031;-77
2023/03/18 08:16:31;;;;;;;13.20;10.80;;;;;;;11.20;100.00;100805.66;4806627;29;20030;-76
2023/03/18 08:18:58;;;;;;;15.00;11.00;;;;;;;11.25;100.00;100805.81;4806156;29;20463;-76
2023/03/18 08:21:24;;;;;;;14.63;10.57;;;;;;;11.31;100.00;100818.44;4809708;29;20037;-76
2023/03/18 08:23:54;;;;;;;13.20;10.95;;;;;;;11.35;100.00;100808.75;4810938;29;20563;-74
2023/03/18 08:26:22;;;;;;;12.02;10.55;;;;;;;11.40;100.00;100805.34;4817910;29;20034;-74
2023/03/18 08:28:48;;;;;;;13.07;10.18;;;;;;;11.46;100.00;100809.88;4823329;29;20399;-73
2023/03/18 08:31:13;;;;;;;12.75;9.93;;;;;;;11.51;100.00;100818.13;4813598;29;20463;-75
2023/03/18 08:33:39;;;;;;;11.48;9.60;;;;;;;11.57;100.00;100819.09;4808602;29;20026;-75
2023/03/18 08:36:07;;;;;;;11.43;9.13;;;;;;;11.63;100.00;100818.16;4802074;29;20066;-74
2023/03/18 08:38:33;;;;;;;13.15;9.57;;;;;;;11.68;100.00;100819.13;4807570;29;20035;-76
2023/03/18 08:41:15;;;;;;;14.10;9.30;;;;;;;11.76;100.00;100828.78;4806887;29;20047;-77
2023/03/18 08:43:41;;;;;;;13.75;9.68;;;;;;;11.80;100.00;100821.81;4803475;29;20027;-78
2023/03/18 08:46:09;;;;;;;10.68;9.50;;;;;;;11.87;100.00;100830.66;4806117;29;20046;-75
2023/03/18 08:48:35;;;;;;;13.23;10.32;;;;;;;11.95;100.00;100836.84;4805394;29;20027;-73
2023/03/18 08:51:07;;;;;;;10.95;9.43;;;;;;;12.02;100.00;100837.56;4800598;29;20030;-74
2023/03/18 08:53:32;;;;;;;;;;;;;;;12.10;100.00;100842.63;4806407;29;20079;-74
2023/03/18 08:55:58;;;;;;;12.70;9.18;;;;;;;12.05;100.00;100839.81;4805481;29;20008;-73
2023/03/18 08:58:23;;;;;;;12.68;9.38;;;;;;;12.08;100.00;100836.63;4806955;29;20027;-74
2023/03/18 09:00:49;;;;;;;12.65;10.00;;;;;;;12.11;100.00;100844.28;4803367;29;20026;-74
2023/03/18 09:03:14;;;;;;;14.30;9.80;;;;;;;12.12;100.00;100840.50;4820710;29;20041;-74
2023/03/18 09:05:40;;;;;;;14.60;9.98;;;;;;;12.18;100.00;100833.31;4806905;29;20077;-74
2023/03/18 09:08:05;;;;;;;13.45;9.93;;;;;;;12.25;100.00;100844.06;4805790;29;20086;-74
2023/03/18 09:10:32;;;;;;;13.98;10.13;;;;;;;12.27;100.00;100833.78;4805333;29;20391;-74
2023/03/18 09:12:58;;;;;;;13.32;9.70;;;;;;;12.41;100.00;100843.34;4806567;29;20019;-74
2023/03/18 09:15:23;;;;;;;12.35;9.20;;;;;;;12.48;100.00;100841.31;4806584;29;20030;-74
2023/03/18 09:17:49;;;;;;;13.07;9.57;;;;;;;12.49;100.00;100848.41;4804765;29;20053;-74
2023/03/18 09:20:16;;;;;;;12.32;9.13;;;;;;;12.51;100.00;100846.25;4805614;29;20019;-75
2023/03/18 09:22:43;;;;;;;13.90;8.88;;;;;;;12.49;100.00;100842.16;4806182;29;20072;-74
2023/03/18 09:25:09;;;;;;;11.90;9.18;;;;;;;12.49;100.00;100850.28;4806493;29;20054;-74
2023/03/18 09:27:35;;;;;;;11.13;8.38;;;;;;;12.50;100.00;100850.06;4805424;29;20456;-74
2023/03/18 09:30:01;;;;;;;11.25;8.23;;;;;;;12.54;100.00;100848.50;4806269;29;20026;-74
2023/03/18 09:32:26;;;;;;;11.23;8.18;;;;;;;12.61;100.00;100850.28;4806447;29;20026;-74
2023/03/18 09:34:52;;;;;;;9.95;7.80;;;;;;;12.70;100.00;100852.38;4804845;29;20026;-74
2023/03/18 09:37:18;;;;;;;12.38;7.45;;;;;;;12.75;100.00;100859.81;4805238;29;20023;-74
2023/03/18 09:39:44;;;;;;;10.40;6.60;;;;;;;12.86;100.00;100845.38;4805031;29;20039;-74
2023/03/18 09:42:28;;;;;;;10.85;7.18;;;;;;;12.92;100.00;100838.16;4806361;29;20479;-75
2023/03/18 09:45:07;;;;;;;9.98;6.10;;;;;;;12.97;100.00;100841.00;4805103;29;20035;-74
2023/03/18 09:48:07;;;;;;;8.20;6.22;;;;;;;13.04;100.00;100844.34;4805095;29;20118;-74
2023/03/18 09:50:38;;;;;;;10.52;5.93;;;;;;;13.08;100.00;100847.44;4804896;29;20387;-74
2023/03/18 09:53:26;;;;;;;7.53;5.20;;;;;;;13.17;100.00;100842.44;4804408;29;20080;-74
2023/03/18 09:55:55;;;;;;;7.78;5.70;;;;;;;13.24;100.00;100849.38;4804856;29;20443;-74
2023/03/18 09:58:39;;;;;;;10.68;5.35;;;;;;;13.28;100.00;100839.66;4804742;29;20038;-74
2023/03/18 10:01:08;;;;;;;10.98;5.50;;;;;;;13.35;100.00;100841.47;4803356;29;20027;-74
2023/03/18 10:03:38;;;;;;;8.23;4.70;;;;;;;13.38;100.00;100832.81;4806156;29;20034;-74
2023/03/18 10:06:11;;;;;;;7.47;4.28;;;;;;;13.47;100.00;100845.75;4804519;29;20470;-74
2023/03/18 10:08:42;;;;;;;6.32;3.92;;;;;;;13.51;100.00;100854.22;4804710;29;20486;-74
2023/03/18 10:11:18;;;;;;;8.32;4.70;;;;;;;13.57;100.00;100849.72;4805695;29;20475;-75
2023/03/18 10:13:52;;;;;;;10.25;4.88;;;;;;;13.67;100.00;100849.09;4804412;29;20033;-74
2023/03/18 10:16:24;;;;;;;7.97;4.65;;;;;;;13.72;100.00;100857.31;4804426;29;20026;-74
2023/03/18 10:18:50;;;;;;;8.18;4.05;;;;;;;13.77;100.00;100852.81;4804359;29;20058;-74
2023/03/18 10:21:39;;;;;;;8.18;4.40;;;;;;;13.89;100.00;100847.28;4804540;29;20392;-74
2023/03/18 10:24:30;;;;;;;11.90;4.80;;;;;;;14.04;100.00;100843.16;4804306;29;20027;-75
2023/03/18 10:27:15;;;;;;;7.80;4.30;;;;;;;14.06;100.00;100854.63;4804257;29;20521;-75
2023/03/18 10:30:17;;;;;;;9.00;4.38;;;;;;;14.05;100.00;100856.50;4804318;29;20288;-75
2023/03/18 10:33:14;;;;;;;8.90;3.92;;;;;;;14.12;100.00;100859.06;4805411;29;20084;-74
2023/03/18 10:35:47;;;;;;;8.73;4.35;;;;;;;14.18;100.00;100849.91;4783423;29;20043;-75
2023/03/18 10:38:35;;;;;;;9.52;4.00;;;;;;;14.29;100.00;100856.31;4805283;29;20155;-75
2023/03/18 10:41:01;;;;;;;7.45;3.92;;;;;;;14.30;100.00;100856.06;4803878;29;20038;-75
2023/03/18 10:43:30;;;;;;;8.27;3.85;;;;;;;14.38;100.00;100846.66;4805467;29;20030;-75
2023/03/18 10:46:01;;;;;;;6.28;3.53;;;;;;;14.52;100.00;100838.94;4804141;29;20026;-75
2023/03/18 10:48:33;;;;;;;10.30;3.95;;;;;;;14.50;100.00;100841.91;4803797;29;20030;-76
2023/03/18 10:51:21;;;;;;;8.75;2.83;;;;;;;14.51;100.00;100829.16;4805413;29;20176;-75
2023/03/18 10:54:02;;;;;;;5.93;2.33;;;;;;;14.48;94.24;100841.38;4804162;29;20126;-75
2023/03/18 10:56:28;;;;;;;8.77;2.78;;;;;;;14.42;93.06;100834.19;4804319;29;20430;-75
2023/03/18 10:58:55;;;;;;;8.45;2.67;;;;;;;14.38;91.96;100833.03;4803983;29;20023;-75
2023/03/18 11:01:29;;;;;;;6.13;2.70;;;;;;;14.38;100.00;100824.88;4801756;29;20041;-75
2023/03/18 11:04:00;;;;;;;4.82;2.58;;;;;;;14.32;91.42;100834.88;4805343;29;20037;-75
2023/03/18 11:06:40;;;;;;;6.50;2.88;;;;;;;14.37;93.26;100842.28;4804193;29;20030;-75
2023/03/18 11:09:09;;;;;;;10.00;3.60;;;;;;;14.34;99.38;100849.06;4805111;29;20026;-75
2023/03/18 11:11:34;;;;;;;6.32;3.00;;;;;;;14.34;100.00;100843.63;4804214;29;20015;-74
2023/03/18 11:14:05;;;;;;;5.72;2.88;;;;;;;14.36;100.00;100846.91;4803807;29;20102;-74
2023/03/18 11:16:45;;;;;;;7.55;3.00;;;;;;;14.33;100.00;100835.72;4804245;29;20039;-75